sensor_id;sensor_type;location;lat;lon;timestamp;temperature;humidity
12688;DHT22;6408;59.388;17.798;2023-05-10T00:01:48;8.90;99.90
12688;DHT22;6408;59.388;17.798;2023-05-10T00:04:17;8.90;99.90
12688;DHT22;6408;59.388;17.798;2023-05-10T00:06:44;8.90;99.90
12688;DHT22;6408;59.388;17.798;2023-05-10T00:09:12;8.90;99.90
12688;DHT22;6408;59.388;17.798;2023-05-10T00:11:39;8.80;99.90
12688;DHT22;6408;59.388;17.798;2023-05-10T00:14:06;8.80;99.90
12688;DHT22;6408;59.388;17.798;2023-05-10T00:16:34;8.80;99.90
12688;DHT22;6408;59.388;17.798;2023-05-10T00:19:01;8.70;99.90
12688;DHT22;6408;59.388;17.798;2023-05-10T00:21:30;8.70;99.90
12688;DHT22;6408;59.388;17.798;2023-05-10T00:23:57;8.70;99.90
12688;DHT22;6408;59.388;17.798;2023-05-10T00:26:25;8.70;99.90
12688;DHT22;6408;59.388;17.798;2023-05-10T00:28:52;8.60;99.90
12688;DHT22;6408;59.388;17.798;2023-05-10T00:31:19;8.60;99.90
12688;DHT22;6408;59.388;17.798;2023-05-10T00:33:47;8.60;99.90
12688;DHT22;6408;59.388;17.798;2023-05-10T00:36:14;8.60;99.90
12688;DHT22;6408;59.388;17.798;2023-05-10T00:38:43;8.50;99.90
12688;DHT22;6408;59.388;17.798;2023-05-10T00:41:10;8.50;99.90
12688;DHT22;6408;59.388;17.798;2023-05-10T00:43:37;8.50;99.90
12688;DHT22;6408;59.388;17.798;2023-05-10T00:46:05;8.40;99.90
12688;DHT22;6408;59.388;17.798;2023-05-10T00:48:32;8.40;99.90
12688;DHT22;6408;59.388;17.798;2023-05-10T00:51:01;8.40;99.90
12688;DHT22;6408;59.388;17.798;2023-05-10T00:53:29;8.30;99.90
12688;DHT22;6408;59.388;17.798;2023-05-10T00:55:59;8.30;99.90
12688;DHT22;6408;59.388;17.798;2023-05-10T00:58:29;8.20;99.90
12688;DHT22;6408;59.388;17.798;2023-05-10T01:00:56;8.20;99.90
12688;DHT22;6408;59.388;17.798;2023-05-10T01:03:25;8.20;99.90
12688;DHT22;6408;59.388;17.798;2023-05-10T01:05:52;8.20;99.90
12688;DHT22;6408;59.388;17.798;2023-05-10T01:08:19;8.20;99.90
12688;DHT22;6408;59.388;17.798;2023-05-10T01:10:47;8.20;99.90
12688;DHT22;6408;59.388;17.798;2023-05-10T01:13:33;8.10;99.90
12688;DHT22;6408;59.388;17.798;2023-05-10T01:16:03;8.10;99.90
12688;DHT22;6408;59.388;17.798;2023-05-10T01:18:33;8.10;99.90
12688;DHT22;6408;59.388;17.798;2023-05-10T01:21:14;8.10;99.90
12688;DHT22;6408;59.388;17.798;2023-05-10T01:30:05;8.00;99.90
12688;DHT22;6408;59.388;17.798;2023-05-10T01:32:43;8.00;99.90
12688;DHT22;6408;59.388;17.798;2023-05-10T01:35:17;7.90;99.90
12688;DHT22;6408;59.388;17.798;2023-05-10T01:37:52;7.90;99.90
12688;DHT22;6408;59.388;17.798;2023-05-10T01:40:26;7.90;99.90
12688;DHT22;6408;59.388;17.798;2023-05-10T01:43:02;7.90;99.90
12688;DHT22;6408;59.388;17.798;2023-05-10T01:45:33;7.80;99.90
12688;DHT22;6408;59.388;17.798;2023-05-10T01:48:08;7.80;99.90
12688;DHT22;6408;59.388;17.798;2023-05-10T01:50:39;7.80;99.90
12688;DHT22;6408;59.388;17.798;2023-05-10T01:53:10;7.80;99.90
12688;DHT22;6408;59.388;17.798;2023-05-10T01:55:42;7.80;99.90
12688;DHT22;6408;59.388;17.798;2023-05-10T01:58:14;7.70;99.90
12688;DHT22;6408;59.388;17.798;2023-05-10T02:00:44;7.70;99.90
12688;DHT22;6408;59.388;17.798;2023-05-10T02:03:15;7.70;99.90
12688;DHT22;6408;59.388;17.798;2023-05-10T02:05:43;7.70;99.90
12688;DHT22;6408;59.388;17.798;2023-05-10T02:08:14;7.70;99.90
12688;DHT22;6408;59.388;17.798;2023-05-10T02:10:45;7.70;99.90
12688;DHT22;6408;59.388;17.798;2023-05-10T02:13:14;7.70;99.90
12688;DHT22;6408;59.388;17.798;2023-05-10T02:15:43;7.70;99.90
12688;DHT22;6408;59.388;17.798;2023-05-10T02:18:16;7.70;99.90
12688;DHT22;6408;59.388;17.798;2023-05-10T02:20:46;7.70;99.90
12688;DHT22;6408;59.388;17.798;2023-05-10T02:23:14;7.60;99.90
12688;DHT22;6408;59.388;17.798;2023-05-10T02:25:43;7.60;99.90
12688;DHT22;6408;59.388;17.798;2023-05-10T02:28:12;7.60;99.90
12688;DHT22;6408;59.388;17.798;2023-05-10T02:30:41;7.60;99.90
12688;DHT22;6408;59.388;17.798;2023-05-10T02:33:10;7.50;99.90
12688;DHT22;6408;59.388;17.798;2023-05-10T02:35:39;7.50;99.90
12688;DHT22;6408;59.388;17.798;2023-05-10T02:38:08;7.50;99.90
12688;DHT22;6408;59.388;17.798;2023-05-10T02:40:38;7.50;99.90
12688;DHT22;6408;59.388;17.798;2023-05-10T02:43:11;7.50;99.90
12688;DHT22;6408;59.388;17.798;2023-05-10T02:45:40;7.50;99.90
12688;DHT22;6408;59.388;17.798;2023-05-10T02:48:08;7.50;99.90
12688;DHT22;6408;59.388;17.798;2023-05-10T02:50:39;7.50;99.90
12688;DHT22;6408;59.388;17.798;2023-05-10T02:53:11;7.50;99.90
12688;DHT22;6408;59.388;17.798;2023-05-10T02:55:42;7.60;99.90
12688;DHT22;6408;59.388;17.798;2023-05-10T02:58:13;7.60;99.90
12688;DHT22;6408;59.388;17.798;2023-05-10T03:00:40;7.60;99.90
12688;DHT22;6408;59.388;17.798;2023-05-10T03:03:09;7.60;99.90
12688;DHT22;6408;59.388;17.798;2023-05-10T03:05:39;7.70;99.90
12688;DHT22;6408;59.388;17.798;2023-05-10T03:08:06;7.70;99.90
12688;DHT22;6408;59.388;17.798;2023-05-10T03:10:41;7.70;99.90
12688;DHT22;6408;59.388;17.798;2023-05-10T03:13:16;7.80;99.90
12688;DHT22;6408;59.388;17.798;2023-05-10T03:15:54;7.80;99.90
12688;DHT22;6408;59.388;17.798;2023-05-10T03:18:28;7.80;99.90
12688;DHT22;6408;59.388;17.798;2023-05-10T03:21:02;7.80;99.90
12688;DHT22;6408;59.388;17.798;2023-05-10T03:23:35;7.90;99.90
12688;DHT22;6408;59.388;17.798;2023-05-10T03:26:08;8.00;99.90
12688;DHT22;6408;59.388;17.798;2023-05-10T03:28:36;8.00;99.90
12688;DHT22;6408;59.388;17.798;2023-05-10T03:31:05;8.10;99.90
12688;DHT22;6408;59.388;17.798;2023-05-10T03:33:33;8.30;99.90
12688;DHT22;6408;59.388;17.798;2023-05-10T03:36:03;8.40;99.90
12688;DHT22;6408;59.388;17.798;2023-05-10T03:38:31;8.40;99.90
12688;DHT22;6408;59.388;17.798;2023-05-10T03:40:58;8.60;99.90
12688;DHT22;6408;59.388;17.798;2023-05-10T03:43:25;8.70;99.90
12688;DHT22;6408;59.388;17.798;2023-05-10T03:45:53;8.80;99.90
12688;DHT22;6408;59.388;17.798;2023-05-10T03:48:20;8.90;99.90
12688;DHT22;6408;59.388;17.798;2023-05-10T03:50:47;9.00;99.90
12688;DHT22;6408;59.388;17.798;2023-05-10T03:53:17;9.10;99.90
12688;DHT22;6408;59.388;17.798;2023-05-10T03:55:44;9.20;99.90
12688;DHT22;6408;59.388;17.798;2023-05-10T03:58:12;9.30;99.90
12688;DHT22;6408;59.388;17.798;2023-05-10T04:00:39;9.40;99.90
12688;DHT22;6408;59.388;17.798;2023-05-10T04:03:10;9.50;99.90
12688;DHT22;6408;59.388;17.798;2023-05-10T04:05:38;9.60;99.90
12688;DHT22;6408;59.388;17.798;2023-05-10T04:08:06;9.70;99.90
12688;DHT22;6408;59.388;17.798;2023-05-10T04:10:35;9.80;99.90
12688;DHT22;6408;59.388;17.798;2023-05-10T04:13:02;10.00;99.90
12688;DHT22;6408;59.388;17.798;2023-05-10T04:15:30;10.10;99.90
12688;DHT22;6408;59.388;17.798;2023-05-10T04:17:57;10.30;99.90
12688;DHT22;6408;59.388;17.798;2023-05-10T04:20:24;10.40;99.90
12688;DHT22;6408;59.388;17.798;2023-05-10T04:22:52;10.40;99.90
12688;DHT22;6408;59.388;17.798;2023-05-10T04:25:19;10.60;99.90
12688;DHT22;6408;59.388;17.798;2023-05-10T04:27:48;10.70;99.90
12688;DHT22;6408;59.388;17.798;2023-05-10T04:30:16;10.80;99.90
12688;DHT22;6408;59.388;17.798;2023-05-10T04:32:44;10.90;99.90
12688;DHT22;6408;59.388;17.798;2023-05-10T04:35:11;11.00;99.90
12688;DHT22;6408;59.388;17.798;2023-05-10T04:37:40;11.10;99.90
12688;DHT22;6408;59.388;17.798;2023-05-10T04:40:08;11.20;99.90
12688;DHT22;6408;59.388;17.798;2023-05-10T04:42:36;11.40;99.90
12688;DHT22;6408;59.388;17.798;2023-05-10T04:45:06;11.50;99.90
12688;DHT22;6408;59.388;17.798;2023-05-10T04:47:35;11.60;99.90
12688;DHT22;6408;59.388;17.798;2023-05-10T04:50:03;11.60;99.90
12688;DHT22;6408;59.388;17.798;2023-05-10T04:52:31;11.70;99.90
12688;DHT22;6408;59.388;17.798;2023-05-10T04:54:58;11.90;99.90
12688;DHT22;6408;59.388;17.798;2023-05-10T04:57:26;12.00;99.90
12688;DHT22;6408;59.388;17.798;2023-05-10T04:59:53;12.20;99.90
12688;DHT22;6408;59.388;17.798;2023-05-10T05:02:23;12.20;99.90
12688;DHT22;6408;59.388;17.798;2023-05-10T05:04:51;12.40;99.90
12688;DHT22;6408;59.388;17.798;2023-05-10T05:07:18;12.40;99.90
12688;DHT22;6408;59.388;17.798;2023-05-10T05:09:45;12.50;99.90
12688;DHT22;6408;59.388;17.798;2023-05-10T05:12:13;12.70;99.90
12688;DHT22;6408;59.388;17.798;2023-05-10T05:14:40;12.90;99.90
12688;DHT22;6408;59.388;17.798;2023-05-10T05:17:08;13.00;99.90
12688;DHT22;6408;59.388;17.798;2023-05-10T05:19:37;13.10;99.90
12688;DHT22;6408;59.388;17.798;2023-05-10T05:22:06;13.20;99.90
12688;DHT22;6408;59.388;17.798;2023-05-10T05:24:35;13.30;99.90
12688;DHT22;6408;59.388;17.798;2023-05-10T05:27:03;13.40;99.90
12688;DHT22;6408;59.388;17.798;2023-05-10T05:29:31;13.50;99.90
12688;DHT22;6408;59.388;17.798;2023-05-10T05:31:59;13.70;99.90
12688;DHT22;6408;59.388;17.798;2023-05-10T05:34:26;13.80;99.90
12688;DHT22;6408;59.388;17.798;2023-05-10T05:36:56;13.90;99.90
12688;DHT22;6408;59.388;17.798;2023-05-10T05:39:23;14.00;99.90
12688;DHT22;6408;59.388;17.798;2023-05-10T05:41:50;14.10;99.90
12688;DHT22;6408;59.388;17.798;2023-05-10T05:44:18;14.20;99.90
12688;DHT22;6408;59.388;17.798;2023-05-10T05:46:45;14.20;99.90
12688;DHT22;6408;59.388;17.798;2023-05-10T05:49:13;14.20;99.90
12688;DHT22;6408;59.388;17.798;2023-05-10T05:51:40;14.30;99.90
12688;DHT22;6408;59.388;17.798;2023-05-10T05:54:09;14.50;99.90
12688;DHT22;6408;59.388;17.798;2023-05-10T05:56:36;14.60;99.90
12688;DHT22;6408;59.388;17.798;2023-05-10T05:59:04;14.70;99.90
12688;DHT22;6408;59.388;17.798;2023-05-10T06:01:31;14.90;99.90
12688;DHT22;6408;59.388;17.798;2023-05-10T06:03:59;14.90;99.90
12688;DHT22;6408;59.388;17.798;2023-05-10T06:06:26;14.90;99.90
12688;DHT22;6408;59.388;17.798;2023-05-10T06:08:54;15.10;99.90
12688;DHT22;6408;59.388;17.798;2023-05-10T06:11:23;15.20;99.90
12688;DHT22;6408;59.388;17.798;2023-05-10T06:13:51;15.20;99.90
12688;DHT22;6408;59.388;17.798;2023-05-10T06:16:18;15.30;99.90
12688;DHT22;6408;59.388;17.798;2023-05-10T06:18:45;15.40;99.90
12688;DHT22;6408;59.388;17.798;2023-05-10T06:21:13;15.50;99.90
12688;DHT22;6408;59.388;17.798;2023-05-10T06:23:40;15.60;99.90
12688;DHT22;6408;59.388;17.798;2023-05-10T06:26:07;15.80;99.90
12688;DHT22;6408;59.388;17.798;2023-05-10T06:28:36;15.90;99.90
12688;DHT22;6408;59.388;17.798;2023-05-10T06:31:05;16.00;99.90
12688;DHT22;6408;59.388;17.798;2023-05-10T06:33:32;16.20;99.90
12688;DHT22;6408;59.388;17.798;2023-05-10T06:35:59;16.30;99.90
12688;DHT22;6408;59.388;17.798;2023-05-10T06:38:27;16.40;99.90
12688;DHT22;6408;59.388;17.798;2023-05-10T06:40:54;16.50;99.90
12688;DHT22;6408;59.388;17.798;2023-05-10T06:43:22;16.60;99.90
12688;DHT22;6408;59.388;17.798;2023-05-10T06:45:52;16.70;99.90
12688;DHT22;6408;59.388;17.798;2023-05-10T06:48:19;16.90;99.90
12688;DHT22;6408;59.388;17.798;2023-05-10T06:50:46;16.90;99.90
12688;DHT22;6408;59.388;17.798;2023-05-10T06:53:14;17.00;99.90
12688;DHT22;6408;59.388;17.798;2023-05-10T06:55:41;17.10;99.90
12688;DHT22;6408;59.388;17.798;2023-05-10T06:58:08;17.00;99.90
12688;DHT22;6408;59.388;17.798;2023-05-10T07:00:35;17.20;99.90
12688;DHT22;6408;59.388;17.798;2023-05-10T07:03:07;17.20;99.90
12688;DHT22;6408;59.388;17.798;2023-05-10T07:05:35;17.40;99.90
12688;DHT22;6408;59.388;17.798;2023-05-10T07:08:02;17.50;99.90
12688;DHT22;6408;59.388;17.798;2023-05-10T07:10:30;17.60;99.90
12688;DHT22;6408;59.388;17.798;2023-05-10T07:12:57;17.70;99.90
12688;DHT22;6408;59.388;17.798;2023-05-10T07:15:24;17.80;99.90
12688;DHT22;6408;59.388;17.798;2023-05-10T07:17:51;17.90;99.90
12688;DHT22;6408;59.388;17.798;2023-05-10T07:20:21;18.00;99.90
12688;DHT22;6408;59.388;17.798;2023-05-10T07:22:50;18.00;99.90
12688;DHT22;6408;59.388;17.798;2023-05-10T07:25:17;18.10;99.90
12688;DHT22;6408;59.388;17.798;2023-05-10T07:27:44;18.10;99.90
12688;DHT22;6408;59.388;17.798;2023-05-10T07:30:14;18.20;99.90
12688;DHT22;6408;59.388;17.798;2023-05-10T07:32:42;18.40;99.90
12688;DHT22;6408;59.388;17.798;2023-05-10T07:35:09;18.50;99.90
12688;DHT22;6408;59.388;17.798;2023-05-10T07:37:38;18.50;99.90
12688;DHT22;6408;59.388;17.798;2023-05-10T07:40:07;18.60;99.90
12688;DHT22;6408;59.388;17.798;2023-05-10T07:42:34;18.70;99.90
12688;DHT22;6408;59.388;17.798;2023-05-10T07:45:02;18.90;99.90
12688;DHT22;6408;59.388;17.798;2023-05-10T07:47:29;19.00;99.90
12688;DHT22;6408;59.388;17.798;2023-05-10T07:49:57;19.10;99.90
12688;DHT22;6408;59.388;17.798;2023-05-10T07:52:25;19.00;99.90
12688;DHT22;6408;59.388;17.798;2023-05-10T07:54:54;19.00;99.90
12688;DHT22;6408;59.388;17.798;2023-05-10T07:57:22;19.00;99.90
12688;DHT22;6408;59.388;17.798;2023-05-10T07:59:50;19.10;99.90
12688;DHT22;6408;59.388;17.798;2023-05-10T08:02:18;19.30;99.90
12688;DHT22;6408;59.388;17.798;2023-05-10T08:04:45;19.50;99.90
12688;DHT22;6408;59.388;17.798;2023-05-10T08:07:12;19.60;99.90
12688;DHT22;6408;59.388;17.798;2023-05-10T08:09:39;19.70;99.90
12688;DHT22;6408;59.388;17.798;2023-05-10T08:12:09;19.80;99.90
12688;DHT22;6408;59.388;17.798;2023-05-10T08:14:36;19.90;99.90
12688;DHT22;6408;59.388;17.798;2023-05-10T08:17:03;20.00;99.90
12688;DHT22;6408;59.388;17.798;2023-05-10T08:19:31;20.00;99.90
12688;DHT22;6408;59.388;17.798;2023-05-10T08:21:58;20.00;99.90
12688;DHT22;6408;59.388;17.798;2023-05-10T08:24:26;20.10;99.90
12688;DHT22;6408;59.388;17.798;2023-05-10T08:26:53;20.30;99.90
12688;DHT22;6408;59.388;17.798;2023-05-10T08:29:22;20.30;99.90
12688;DHT22;6408;59.388;17.798;2023-05-10T08:31:49;20.40;99.90
12688;DHT22;6408;59.388;17.798;2023-05-10T08:34:17;20.40;99.90
12688;DHT22;6408;59.388;17.798;2023-05-10T08:36:45;20.40;99.90
12688;DHT22;6408;59.388;17.798;2023-05-10T08:39:12;20.50;99.40
12688;DHT22;6408;59.388;17.798;2023-05-10T08:41:39;20.60;99.60
12688;DHT22;6408;59.388;17.798;2023-05-10T08:44:11;20.60;99.20
12688;DHT22;6408;59.388;17.798;2023-05-10T08:46:41;20.80;98.90
12688;DHT22;6408;59.388;17.798;2023-05-10T08:49:14;20.90;98.70
12688;DHT22;6408;59.388;17.798;2023-05-10T08:51:47;21.00;98.20
12688;DHT22;6408;59.388;17.798;2023-05-10T08:54:16;20.90;97.50
12688;DHT22;6408;59.388;17.798;2023-05-10T08:56:44;21.10;97.40
12688;DHT22;6408;59.388;17.798;2023-05-10T08:59:12;21.10;97.20
12688;DHT22;6408;59.388;17.798;2023-05-10T09:01:43;21.30;97.00
12688;DHT22;6408;59.388;17.798;2023-05-10T09:04:12;21.30;96.10
12688;DHT22;6408;59.388;17.798;2023-05-10T09:06:39;21.40;96.00
12688;DHT22;6408;59.388;17.798;2023-05-10T09:09:07;21.30;95.40
12688;DHT22;6408;59.388;17.798;2023-05-10T09:11:34;21.10;94.90
12688;DHT22;6408;59.388;17.798;2023-05-10T09:14:02;21.30;95.20
12688;DHT22;6408;59.388;17.798;2023-05-10T09:16:29;21.40;94.80
12688;DHT22;6408;59.388;17.798;2023-05-10T09:18:58;21.50;94.30
12688;DHT22;6408;59.388;17.798;2023-05-10T09:21:26;21.80;94.30
12688;DHT22;6408;59.388;17.798;2023-05-10T09:23:53;21.80;94.10
12688;DHT22;6408;59.388;17.798;2023-05-10T09:26:24;21.70;94.20
12688;DHT22;6408;59.388;17.798;2023-05-10T09:28:52;21.80;94.10
12688;DHT22;6408;59.388;17.798;2023-05-10T09:31:20;21.80;93.80
12688;DHT22;6408;59.388;17.798;2023-05-10T09:33:49;21.90;93.10
12688;DHT22;6408;59.388;17.798;2023-05-10T09:36:18;22.00;93.50
12688;DHT22;6408;59.388;17.798;2023-05-10T09:38:46;22.10;93.30
12688;DHT22;6408;59.388;17.798;2023-05-10T09:41:18;22.00;92.80
12688;DHT22;6408;59.388;17.798;2023-05-10T09:43:46;22.10;92.90
12688;DHT22;6408;59.388;17.798;2023-05-10T09:46:14;21.90;92.30
12688;DHT22;6408;59.388;17.798;2023-05-10T09:48:44;21.90;93.20
12688;DHT22;6408;59.388;17.798;2023-05-10T09:51:20;21.90;92.60
12688;DHT22;6408;59.388;17.798;2023-05-10T09:53:48;21.90;92.70
12688;DHT22;6408;59.388;17.798;2023-05-10T09:56:33;22.00;93.00
12688;DHT22;6408;59.388;17.798;2023-05-10T09:59:03;21.80;91.90
12688;DHT22;6408;59.388;17.798;2023-05-10T10:01:31;21.70;91.80
12688;DHT22;6408;59.388;17.798;2023-05-10T10:03:58;21.90;91.80
12688;DHT22;6408;59.388;17.798;2023-05-10T10:06:27;21.80;91.40
12688;DHT22;6408;59.388;17.798;2023-05-10T10:08:55;22.10;91.20
12688;DHT22;6408;59.388;17.798;2023-05-10T10:11:23;22.10;91.30
12688;DHT22;6408;59.388;17.798;2023-05-10T10:13:51;22.10;91.50
12688;DHT22;6408;59.388;17.798;2023-05-10T10:16:20;22.10;91.70
12688;DHT22;6408;59.388;17.798;2023-05-10T10:18:47;22.10;91.30
12688;DHT22;6408;59.388;17.798;2023-05-10T10:21:15;21.90;91.70
12688;DHT22;6408;59.388;17.798;2023-05-10T10:23:46;22.10;91.90
12688;DHT22;6408;59.388;17.798;2023-05-10T10:26:14;22.00;91.80
12688;DHT22;6408;59.388;17.798;2023-05-10T10:28:51;22.00;92.20
12688;DHT22;6408;59.388;17.798;2023-05-10T10:31:26;21.70;92.70
12688;DHT22;6408;59.388;17.798;2023-05-10T10:33:59;21.70;92.50
12688;DHT22;6408;59.388;17.798;2023-05-10T10:36:28;21.60;91.90
12688;DHT22;6408;59.388;17.798;2023-05-10T10:38:59;21.80;91.80
12688;DHT22;6408;59.388;17.798;2023-05-10T10:41:30;21.90;92.30
12688;DHT22;6408;59.388;17.798;2023-05-10T10:44:24;21.80;92.70
12688;DHT22;6408;59.388;17.798;2023-05-10T10:47:22;21.90;91.90
12688;DHT22;6408;59.388;17.798;2023-05-10T10:50:05;21.90;91.50
12688;DHT22;6408;59.388;17.798;2023-05-10T10:52:34;22.10;91.60
12688;DHT22;6408;59.388;17.798;2023-05-10T10:55:06;22.10;91.10
12688;DHT22;6408;59.388;17.798;2023-05-10T10:57:43;22.10;90.60
12688;DHT22;6408;59.388;17.798;2023-05-10T11:00:27;22.00;91.20
12688;DHT22;6408;59.388;17.798;2023-05-10T11:02:58;22.00;91.90
12688;DHT22;6408;59.388;17.798;2023-05-10T11:05:34;22.00;92.60
12688;DHT22;6408;59.388;17.798;2023-05-10T11:08:15;21.90;92.50
12688;DHT22;6408;59.388;17.798;2023-05-10T11:10:53;21.80;91.20
12688;DHT22;6408;59.388;17.798;2023-05-10T11:13:31;21.90;91.80
12688;DHT22;6408;59.388;17.798;2023-05-10T11:16:13;21.90;91.50
12688;DHT22;6408;59.388;17.798;2023-05-10T11:18:40;21.90;91.70
12688;DHT22;6408;59.388;17.798;2023-05-10T11:21:18;22.00;91.60
12688;DHT22;6408;59.388;17.798;2023-05-10T11:23:50;21.80;92.00
12688;DHT22;6408;59.388;17.798;2023-05-10T11:26:19;21.70;92.20
12688;DHT22;6408;59.388;17.798;2023-05-10T11:28:49;21.70;92.50
12688;DHT22;6408;59.388;17.798;2023-05-10T11:31:17;21.60;92.60
12688;DHT22;6408;59.388;17.798;2023-05-10T11:33:45;21.60;91.60
12688;DHT22;6408;59.388;17.798;2023-05-10T11:36:17;21.50;91.70
12688;DHT22;6408;59.388;17.798;2023-05-10T11:38:45;21.70;91.70
12688;DHT22;6408;59.388;17.798;2023-05-10T11:41:13;21.70;91.20
12688;DHT22;6408;59.388;17.798;2023-05-10T11:43:42;21.60;91.70
12688;DHT22;6408;59.388;17.798;2023-05-10T11:46:11;21.70;91.10
12688;DHT22;6408;59.388;17.798;2023-05-10T11:48:39;21.70;91.60
12688;DHT22;6408;59.388;17.798;2023-05-10T11:51:08;21.60;92.10
12688;DHT22;6408;59.388;17.798;2023-05-10T11:53:36;21.40;92.80
12688;DHT22;6408;59.388;17.798;2023-05-10T11:56:04;21.40;91.60
12688;DHT22;6408;59.388;17.798;2023-05-10T11:58:32;21.30;92.20
12688;DHT22;6408;59.388;17.798;2023-05-10T12:01:02;21.30;90.40
12688;DHT22;6408;59.388;17.798;2023-05-10T12:03:31;21.40;91.40
12688;DHT22;6408;59.388;17.798;2023-05-10T12:05:59;21.50;91.50
12688;DHT22;6408;59.388;17.798;2023-05-10T12:08:28;21.50;91.10
12688;DHT22;6408;59.388;17.798;2023-05-10T12:11:05;21.30;91.50
12688;DHT22;6408;59.388;17.798;2023-05-10T12:13:37;21.00;91.80
12688;DHT22;6408;59.388;17.798;2023-05-10T12:16:15;20.90;91.20
12688;DHT22;6408;59.388;17.798;2023-05-10T12:18:44;21.00;91.60
12688;DHT22;6408;59.388;17.798;2023-05-10T12:21:11;21.20;91.70
12688;DHT22;6408;59.388;17.798;2023-05-10T12:23:39;21.20;91.70
12688;DHT22;6408;59.388;17.798;2023-05-10T12:26:09;21.10;91.60
12688;DHT22;6408;59.388;17.798;2023-05-10T12:28:37;20.80;91.90
12688;DHT22;6408;59.388;17.798;2023-05-10T12:31:06;20.90;92.20
12688;DHT22;6408;59.388;17.798;2023-05-10T12:33:40;21.00;91.90
12688;DHT22;6408;59.388;17.798;2023-05-10T12:36:08;21.00;92.00
12688;DHT22;6408;59.388;17.798;2023-05-10T12:38:37;21.20;92.00
12688;DHT22;6408;59.388;17.798;2023-05-10T12:41:06;20.90;91.80
12688;DHT22;6408;59.388;17.798;2023-05-10T12:43:34;20.90;92.20
12688;DHT22;6408;59.388;17.798;2023-05-10T12:46:06;21.00;92.00
12688;DHT22;6408;59.388;17.798;2023-05-10T12:48:35;21.10;91.40
12688;DHT22;6408;59.388;17.798;2023-05-10T12:51:04;21.00;91.90
12688;DHT22;6408;59.388;17.798;2023-05-10T12:53:34;20.80;92.20
12688;DHT22;6408;59.388;17.798;2023-05-10T12:56:02;20.80;91.90
12688;DHT22;6408;59.388;17.798;2023-05-10T12:58:30;20.80;91.90
12688;DHT22;6408;59.388;17.798;2023-05-10T13:00:58;20.80;91.70
12688;DHT22;6408;59.388;17.798;2023-05-10T13:03:26;20.80;91.50
12688;DHT22;6408;59.388;17.798;2023-05-10T13:05:53;20.60;92.10
12688;DHT22;6408;59.388;17.798;2023-05-10T13:08:22;20.50;91.10
12688;DHT22;6408;59.388;17.798;2023-05-10T13:10:50;20.60;91.70
12688;DHT22;6408;59.388;17.798;2023-05-10T13:13:17;20.30;91.80
12688;DHT22;6408;59.388;17.798;2023-05-10T13:15:45;20.30;91.60
12688;DHT22;6408;59.388;17.798;2023-05-10T13:18:12;20.40;92.20
12688;DHT22;6408;59.388;17.798;2023-05-10T13:20:40;20.60;91.60
12688;DHT22;6408;59.388;17.798;2023-05-10T13:23:08;20.70;90.80
12688;DHT22;6408;59.388;17.798;2023-05-10T13:25:38;20.60;90.60
12688;DHT22;6408;59.388;17.798;2023-05-10T13:28:05;20.60;92.00
12688;DHT22;6408;59.388;17.798;2023-05-10T13:30:32;20.60;91.30
12688;DHT22;6408;59.388;17.798;2023-05-10T13:33:00;20.60;90.30
12688;DHT22;6408;59.388;17.798;2023-05-10T13:35:27;20.60;90.40
12688;DHT22;6408;59.388;17.798;2023-05-10T13:37:54;20.60;90.50
12688;DHT22;6408;59.388;17.798;2023-05-10T13:40:23;20.50;90.60
12688;DHT22;6408;59.388;17.798;2023-05-10T13:42:52;20.40;90.90
12688;DHT22;6408;59.388;17.798;2023-05-10T13:45:20;20.40;90.00
12688;DHT22;6408;59.388;17.798;2023-05-10T13:47:47;20.40;88.60
12688;DHT22;6408;59.388;17.798;2023-05-10T13:50:15;20.40;90.00
12688;DHT22;6408;59.388;17.798;2023-05-10T13:52:42;20.40;89.10
12688;DHT22;6408;59.388;17.798;2023-05-10T13:55:09;20.10;89.40
12688;DHT22;6408;59.388;17.798;2023-05-10T13:57:37;20.10;90.00
12688;DHT22;6408;59.388;17.798;2023-05-10T14:00:09;20.20;89.90
12688;DHT22;6408;59.388;17.798;2023-05-10T14:02:37;20.30;90.10
12688;DHT22;6408;59.388;17.798;2023-05-10T14:05:05;20.40;90.60
12688;DHT22;6408;59.388;17.798;2023-05-10T14:07:32;20.40;90.40
12688;DHT22;6408;59.388;17.798;2023-05-10T14:10:00;20.30;90.00
12688;DHT22;6408;59.388;17.798;2023-05-10T14:12:27;20.40;90.10
12688;DHT22;6408;59.388;17.798;2023-05-10T14:14:55;20.50;89.80
12688;DHT22;6408;59.388;17.798;2023-05-10T14:17:25;20.40;88.50
12688;DHT22;6408;59.388;17.798;2023-05-10T14:19:53;20.40;90.20
12688;DHT22;6408;59.388;17.798;2023-05-10T14:22:20;20.40;90.30
12688;DHT22;6408;59.388;17.798;2023-05-10T14:24:48;20.40;89.70
12688;DHT22;6408;59.388;17.798;2023-05-10T14:27:15;20.20;89.30
12688;DHT22;6408;59.388;17.798;2023-05-10T14:29:43;20.00;90.00
12688;DHT22;6408;59.388;17.798;2023-05-10T14:32:11;19.90;90.10
12688;DHT22;6408;59.388;17.798;2023-05-10T14:34:40;19.90;90.30
12688;DHT22;6408;59.388;17.798;2023-05-10T14:37:10;19.70;90.00
12688;DHT22;6408;59.388;17.798;2023-05-10T14:39:37;19.70;90.10
12688;DHT22;6408;59.388;17.798;2023-05-10T14:42:04;19.60;89.20
12688;DHT22;6408;59.388;17.798;2023-05-10T14:44:32;19.60;87.50
12688;DHT22;6408;59.388;17.798;2023-05-10T14:47:00;19.60;88.40
12688;DHT22;6408;59.388;17.798;2023-05-10T14:49:28;19.50;87.80
12688;DHT22;6408;59.388;17.798;2023-05-10T14:51:57;19.30;88.80
12688;DHT22;6408;59.388;17.798;2023-05-10T14:54:25;19.40;89.80
12688;DHT22;6408;59.388;17.798;2023-05-10T14:56:52;19.60;90.00
12688;DHT22;6408;59.388;17.798;2023-05-10T14:59:20;19.50;89.70
12688;DHT22;6408;59.388;17.798;2023-05-10T15:01:48;19.40;88.90
12688;DHT22;6408;59.388;17.798;2023-05-10T15:04:15;19.30;88.90
12688;DHT22;6408;59.388;17.798;2023-05-10T15:06:42;19.00;89.20
12688;DHT22;6408;59.388;17.798;2023-05-10T15:09:12;19.00;88.90
12688;DHT22;6408;59.388;17.798;2023-05-10T15:11:39;19.00;88.80
12688;DHT22;6408;59.388;17.798;2023-05-10T15:14:06;19.00;90.10
12688;DHT22;6408;59.388;17.798;2023-05-10T15:16:34;19.00;89.20
12688;DHT22;6408;59.388;17.798;2023-05-10T15:19:01;18.90;89.60
12688;DHT22;6408;59.388;17.798;2023-05-10T15:21:29;18.90;90.10
12688;DHT22;6408;59.388;17.798;2023-05-10T15:24:00;18.90;89.00
12688;DHT22;6408;59.388;17.798;2023-05-10T15:26:29;18.90;89.00
12688;DHT22;6408;59.388;17.798;2023-05-10T15:28:57;18.60;87.80
12688;DHT22;6408;59.388;17.798;2023-05-10T15:31:24;18.60;89.00
12688;DHT22;6408;59.388;17.798;2023-05-10T15:33:57;18.40;89.00
12688;DHT22;6408;59.388;17.798;2023-05-10T15:36:24;18.50;89.70
12688;DHT22;6408;59.388;17.798;2023-05-10T15:38:53;18.50;90.30
12688;DHT22;6408;59.388;17.798;2023-05-10T15:41:21;18.40;90.00
12688;DHT22;6408;59.388;17.798;2023-05-10T15:43:50;18.30;90.60
12688;DHT22;6408;59.388;17.798;2023-05-10T15:46:18;18.30;89.30
12688;DHT22;6408;59.388;17.798;2023-05-10T15:48:45;18.40;90.00
12688;DHT22;6408;59.388;17.798;2023-05-10T15:51:12;18.30;89.70
12688;DHT22;6408;59.388;17.798;2023-05-10T15:53:40;18.20;89.40